Terminal Aerodrome Forecast
Issued by NWS

Home | Current Version | Previous Version | Text Only | Print | Product List | Glossary On
Versions: 1 2 3 4 5 6 7 8 9 10 11 12 13 14 15 16 17 18 19 20 21 22 23 24 25 26 27 28 29 30 31 32 33 34 35 36 37 38 39 40 41 42 43 44 45 46
936
FTUS46 KPQR 281619 AAA
TAFONP
TAF AMD
KONP 281619Z 2816/2912 VRB02KT P6SM SCT002
      TEMPO 2816/2818 2SM BR BKN002
     FM281800 34010KT 6SM BR FEW008
     FM282000 34013G20KT 6SM BR SKC
     FM290100 35010KT 6SM BR SKC
     FM290600 36005KT 5SM BR SCT004=

USA.gov is the U.S. government's official web portal to all federal, state and local government web resources and services.